Time;durP1;ratioP1;P1;durP2;ratioP2;P2;SDS_P1;SDS_P2;PMS_P1;PMS_P2;Temp;Humidity;BMP_temperature;BMP_pressure;BME280_temperature;BME280_humidity;BME280_pressure;Samples;Min_cycle;Max_cycle;Signal;HPM_P1;HPM_P2
2021/06/26 00:01:52;;;;;;;30.17;22.92;;;18.90;99.90;;;;;;5049453;28;20068;-73
2021/06/26 00:04:17;;;;;;;28.10;22.25;;;18.90;99.90;;;;;;5051727;28;20036;-72
2021/06/26 00:06:43;;;;;;;32.65;25.73;;;19.00;99.90;;;;;;5049344;28;20090;-72
2021/06/26 00:09:10;;;;;;;32.25;23.10;;;18.90;99.90;;;;;;5048786;28;20021;-73
2021/06/26 00:11:35;;;;;;;34.50;24.38;;;18.80;99.90;;;;;;5055852;28;20056;-73
2021/06/26 00:14:01;;;;;;;28.70;22.52;;;18.80;99.90;;;;;;5064206;28;20051;-72
2021/06/26 00:16:27;;;;;;;35.85;25.15;;;18.80;99.90;;;;;;5063190;28;20433;-72
2021/06/26 00:18:52;;;;;;;33.67;25.13;;;18.90;99.90;;;;;;5060909;28;20025;-72
2021/06/26 00:21:18;;;;;;;31.20;22.85;;;18.80;99.90;;;;;;5057520;28;20024;-72
2021/06/26 00:23:44;;;;;;;27.95;22.00;;;18.80;99.90;;;;;;5059482;28;20086;-72
2021/06/26 00:26:09;;;;;;;35.63;25.40;;;18.80;99.90;;;;;;5054994;28;20585;-73
2021/06/26 00:28:35;;;;;;;29.40;21.63;;;18.80;99.90;;;;;;5062939;28;20050;-73
2021/06/26 00:31:01;;;;;;;34.33;23.63;;;18.80;99.90;;;;;;5062627;28;20117;-72
2021/06/26 00:33:26;;;;;;;33.45;25.13;;;18.70;99.90;;;;;;5059771;28;20020;-73
2021/06/26 00:35:52;;;;;;;34.83;25.33;;;18.70;99.90;;;;;;5057126;28;20089;-72
2021/06/26 00:38:17;;;;;;;32.85;25.25;;;18.70;99.90;;;;;;5060170;28;20017;-73
2021/06/26 00:40:43;;;;;;;31.50;23.75;;;18.70;99.90;;;;;;5066040;28;20147;-73
2021/06/26 00:43:09;;;;;;;31.92;24.63;;;18.70;99.90;;;;;;5066403;28;20029;-72
2021/06/26 00:45:35;;;;;;;30.27;24.63;;;18.70;99.90;;;;;;5059498;28;20099;-73
2021/06/26 00:48:00;;;;;;;40.00;28.17;;;18.60;99.90;;;;;;5058625;28;20048;-73
2021/06/26 00:50:28;;;;;;;34.28;25.58;;;18.60;99.90;;;;;;5059095;28;20020;-73
2021/06/26 00:52:54;;;;;;;37.10;28.33;;;18.60;99.90;;;;;;5062950;28;20028;-73
2021/06/26 00:55:21;;;;;;;34.67;25.42;;;18.60;99.90;;;;;;5065311;28;20021;-72
2021/06/26 00:58:00;;;;;;;36.92;26.98;;;18.60;99.90;;;;;;5056539;28;20032;-72
2021/06/26 01:00:27;;;;;;;40.72;27.63;;;18.70;99.90;;;;;;5063932;28;20060;-72
2021/06/26 01:02:54;;;;;;;36.67;23.17;;;18.60;99.90;;;;;;5069263;28;20027;-73
2021/06/26 01:05:20;;;;;;;27.60;20.90;;;18.60;99.90;;;;;;5061790;28;20044;-72
2021/06/26 01:07:47;;;;;;;25.98;20.80;;;18.70;99.90;;;;;;5062112;28;20027;-74
2021/06/26 01:10:13;;;;;;;29.55;22.55;;;18.80;99.90;;;;;;5063120;28;20453;-75
2021/06/26 01:12:40;;;;;;;31.20;22.73;;;18.80;99.90;;;;;;5064646;28;20501;-75
2021/06/26 01:15:07;;;;;;;31.30;22.63;;;18.80;99.90;;;;;;5064777;28;20025;-74
2021/06/26 01:17:33;;;;;;;29.58;21.77;;;18.80;99.90;;;;;;5054899;28;20091;-74
2021/06/26 01:20:00;;;;;;;31.65;21.65;;;18.80;99.90;;;;;;5064922;28;20025;-74
2021/06/26 01:22:27;;;;;;;32.40;22.88;;;18.80;99.90;;;;;;5065449;28;20090;-73
2021/06/26 01:24:53;;;;;;;31.40;23.52;;;18.80;99.90;;;;;;5067021;28;20025;-74
2021/06/26 01:27:20;;;;;;;36.58;24.30;;;18.80;99.90;;;;;;5066669;28;20526;-73
2021/06/26 01:29:49;;;;;;;34.50;25.20;;;18.80;99.90;;;;;;5058493;28;20025;-73
2021/06/26 01:32:16;;;;;;;38.40;25.38;;;18.80;99.90;;;;;;5063001;28;20029;-73
2021/06/26 01:34:42;;;;;;;38.08;28.02;;;18.80;99.90;;;;;;5068815;28;20477;-73
2021/06/26 01:37:08;;;;;;;39.85;27.13;;;18.80;99.90;;;;;;5061974;28;20032;-73
2021/06/26 01:39:34;;;;;;;39.38;28.13;;;18.80;99.90;;;;;;5062394;28;20029;-73
2021/06/26 01:42:00;;;;;;;33.65;25.27;;;18.80;99.90;;;;;;5063951;28;20078;-72
2021/06/26 01:44:25;;;;;;;41.03;27.02;;;18.80;99.90;;;;;;5057942;28;20033;-72
2021/06/26 01:46:51;;;;;;;39.85;27.25;;;18.80;99.90;;;;;;5060690;28;20036;-72
2021/06/26 01:49:18;;;;;;;38.92;28.02;;;18.80;99.90;;;;;;5063849;28;20513;-72
2021/06/26 01:51:44;;;;;;;40.83;30.27;;;18.80;99.90;;;;;;5063170;28;20070;-72
2021/06/26 01:54:11;;;;;;;49.17;29.73;;;18.90;99.90;;;;;;5065713;28;20389;-73
2021/06/26 01:56:38;;;;;;;55.75;35.83;;;18.80;99.90;;;;;;5064053;28;20090;-73
2021/06/26 01:59:04;;;;;;;42.72;30.38;;;18.80;99.90;;;;;;5057737;28;20036;-72
2021/06/26 02:01:29;;;;;;;41.70;28.48;;;18.80;99.90;;;;;;5064657;28;20078;-73
2021/06/26 02:03:55;;;;;;;48.25;32.60;;;18.80;99.90;;;;;;5063592;28;20037;-72
2021/06/26 02:06:21;;;;;;;43.97;31.92;;;18.80;99.90;;;;;;5054985;28;20029;-73
2021/06/26 02:08:47;;;;;;;36.53;27.33;;;18.90;99.90;;;;;;5059523;28;20064;-73
2021/06/26 02:11:12;;;;;;;32.53;25.30;;;18.90;99.90;;;;;;5054005;28;20511;-73
2021/06/26 02:13:38;;;;;;;34.10;25.15;;;18.90;99.90;;;;;;5065333;28;20024;-72
2021/06/26 02:16:04;;;;;;;37.20;26.05;;;18.90;99.90;;;;;;5054648;28;20495;-72
2021/06/26 02:18:30;;;;;;;33.05;25.02;;;18.90;99.90;;;;;;5065225;28;20044;-72
2021/06/26 02:20:56;;;;;;;39.55;28.33;;;18.90;99.90;;;;;;5067012;28;20485;-73
2021/06/26 02:23:21;;;;;;;37.22;27.83;;;18.90;99.90;;;;;;5058045;28;20098;-72
2021/06/26 02:25:47;;;;;;;33.88;26.63;;;18.90;99.90;;;;;;5054594;28;20025;-72
2021/06/26 02:28:13;;;;;;;39.85;28.33;;;19.00;99.90;;;;;;5065230;28;20035;-73
2021/06/26 02:30:38;;;;;;;34.60;26.40;;;19.00;99.90;;;;;;5062688;28;20040;-72
2021/06/26 02:33:04;;;;;;;39.30;29.08;;;19.00;99.90;;;;;;5059918;28;20118;-73
2021/06/26 02:35:30;;;;;;;34.95;25.83;;;18.90;99.90;;;;;;5063737;28;20473;-72
2021/06/26 02:37:56;;;;;;;40.28;29.38;;;18.80;99.90;;;;;;5062597;28;20035;-72
2021/06/26 02:40:22;;;;;;;39.05;29.15;;;18.90;99.90;;;;;;5051796;28;20108;-73
2021/06/26 02:42:47;;;;;;;36.22;27.02;;;18.90;99.90;;;;;;5061550;28;20033;-73
2021/06/26 02:45:13;;;;;;;35.78;26.17;;;18.90;99.90;;;;;;5065969;28;20489;-73
2021/06/26 02:47:39;;;;;;;35.83;26.35;;;18.90;99.90;;;;;;5058979;28;20032;-73
2021/06/26 02:50:06;;;;;;;37.30;27.17;;;18.90;99.90;;;;;;5062899;28;20032;-73
2021/06/26 02:52:32;;;;;;;42.05;30.02;;;19.00;99.90;;;;;;5070366;28;20598;-73
2021/06/26 02:54:58;;;;;;;43.60;29.65;;;18.90;99.90;;;;;;5062079;28;20096;-73
2021/06/26 02:57:24;;;;;;;40.85;28.27;;;18.90;99.90;;;;;;5058919;28;20473;-73
2021/06/26 02:59:50;;;;;;;39.63;26.50;;;18.80;99.90;;;;;;5062308;28;20013;-73
2021/06/26 03:02:16;;;;;;;41.92;29.90;;;18.70;99.90;;;;;;5060808;28;20033;-72
2021/06/26 03:04:42;;;;;;;48.33;31.15;;;18.80;99.90;;;;;;5059485;28;20013;-72
2021/06/26 03:07:08;;;;;;;45.38;29.23;;;18.80;99.90;;;;;;5065464;28;20046;-73
2021/06/26 03:09:34;;;;;;;36.22;25.92;;;18.80;99.90;;;;;;5061246;28;20044;-72
2021/06/26 03:11:59;;;;;;;40.20;29.33;;;18.80;99.90;;;;;;5062533;28;20060;-73
2021/06/26 03:14:25;;;;;;;40.35;27.38;;;18.80;99.90;;;;;;5061612;28;20013;-72
2021/06/26 03:16:51;;;;;;;34.05;26.60;;;18.80;99.90;;;;;;5059621;28;20090;-73
2021/06/26 03:19:16;;;;;;;39.00;26.83;;;18.80;99.90;;;;;;5065751;28;20542;-73
2021/06/26 03:21:42;;;;;;;39.00;28.65;;;18.80;99.90;;;;;;5060897;28;20515;-72
2021/06/26 03:24:08;;;;;;;39.20;29.73;;;18.80;99.90;;;;;;5069365;28;20111;-73
2021/06/26 03:26:34;;;;;;;40.17;28.67;;;18.80;99.90;;;;;;5063310;28;20503;-73
2021/06/26 03:29:02;;;;;;;38.35;28.50;;;18.80;99.90;;;;;;5058069;28;20029;-73
2021/06/26 03:31:27;;;;;;;38.88;27.80;;;18.80;99.90;;;;;;5064417;28;20032;-72
2021/06/26 03:33:53;;;;;;;38.45;26.48;;;18.90;99.90;;;;;;5054135;28;20025;-73
2021/06/26 03:36:19;;;;;;;38.90;28.45;;;18.90;99.90;;;;;;5065738;28;20020;-73
2021/06/26 03:38:45;;;;;;;41.15;28.42;;;18.90;99.90;;;;;;5065087;28;20073;-73
2021/06/26 03:41:11;;;;;;;44.45;30.02;;;18.90;99.90;;;;;;5064911;28;20029;-73
2021/06/26 03:43:37;;;;;;;41.60;31.13;;;18.90;99.90;;;;;;5061106;28;20025;-73
2021/06/26 03:46:03;;;;;;;43.72;30.27;;;18.90;99.90;;;;;;5060957;28;20032;-73
2021/06/26 03:48:28;;;;;;;46.15;31.85;;;18.90;99.90;;;;;;5065355;28;20413;-72
2021/06/26 03:50:58;;;;;;;56.47;35.80;;;18.90;99.90;;;;;;5065384;28;20082;-73
2021/06/26 03:53:24;;;;;;;46.90;35.10;;;18.80;99.90;;;;;;5064675;28;20381;-73
2021/06/26 03:55:53;;;;;;;47.95;34.47;;;18.80;99.90;;;;;;5059238;28;20024;-72
2021/06/26 03:58:23;;;;;;;51.38;33.03;;;18.80;99.90;;;;;;5058009;28;20032;-72
2021/06/26 04:00:50;;;;;;;46.53;32.97;;;18.90;99.90;;;;;;5061975;28;20028;-72
2021/06/26 04:03:16;;;;;;;46.17;31.90;;;18.90;99.90;;;;;;5060464;28;20096;-72
2021/06/26 04:05:45;;;;;;;47.38;35.00;;;18.90;99.90;;;;;;5057043;28;20473;-73
2021/06/26 04:08:11;;;;;;;43.47;33.42;;;18.90;99.90;;;;;;5063554;28;20032;-73
2021/06/26 04:10:37;;;;;;;48.78;34.33;;;18.90;99.90;;;;;;5064988;28;20047;-73
2021/06/26 04:13:04;;;;;;;48.60;34.13;;;18.90;99.90;;;;;;5049215;28;20025;-72
2021/06/26 04:15:29;;;;;;;48.92;32.88;;;18.90;99.90;;;;;;5061382;28;20037;-73
2021/06/26 04:17:55;;;;;;;51.90;35.53;;;18.90;99.90;;;;;;5065495;28;20036;-73
2021/06/26 04:20:21;;;;;;;45.53;31.67;;;18.90;99.90;;;;;;5059215;28;20444;-73
2021/06/26 04:22:47;;;;;;;51.47;34.13;;;18.90;99.90;;;;;;5062279;28;20112;-72
2021/06/26 04:25:17;;;;;;;49.80;34.22;;;18.90;99.90;;;;;;5065445;28;20036;-72
2021/06/26 04:27:43;;;;;;;46.40;31.58;;;18.80;99.90;;;;;;5057937;28;20098;-72
2021/06/26 04:30:10;;;;;;;49.95;34.45;;;18.80;99.90;;;;;;5058919;28;20032;-72
2021/06/26 04:32:37;;;;;;;51.85;33.53;;;18.80;99.90;;;;;;5058418;28;20021;-72
2021/06/26 04:35:08;;;;;;;52.53;34.63;;;18.80;99.90;;;;;;5056360;28;20111;-72
2021/06/26 04:37:34;;;;;;;47.00;32.03;;;18.80;99.90;;;;;;5056539;28;20025;-72
2021/06/26 04:40:00;;;;;;;56.13;35.30;;;18.80;99.90;;;;;;5066143;28;20481;-73
2021/06/26 04:42:26;;;;;;;44.55;32.65;;;18.80;99.90;;;;;;5058776;28;20052;-73
2021/06/26 04:44:53;;;;;;;50.80;34.40;;;18.80;99.90;;;;;;5064304;28;20079;-73
2021/06/26 04:47:19;;;;;;;46.90;31.80;;;18.90;99.90;;;;;;5053926;28;20025;-73
2021/06/26 04:49:44;;;;;;;47.20;33.90;;;18.90;99.90;;;;;;5055955;28;20083;-73
2021/06/26 04:52:10;;;;;;;45.42;31.55;;;18.90;99.90;;;;;;5059332;28;20043;-73
2021/06/26 04:54:36;;;;;;;41.72;29.27;;;19.00;99.90;;;;;;5058553;28;20028;-73
2021/06/26 04:57:02;;;;;;;48.88;34.60;;;19.00;99.90;;;;;;5064149;28;20028;-73
2021/06/26 04:59:28;;;;;;;49.10;33.28;;;19.00;99.90;;;;;;5061333;28;20029;-73
2021/06/26 05:01:54;;;;;;;43.83;32.33;;;19.00;99.90;;;;;;5056511;28;20077;-73
2021/06/26 05:04:20;;;;;;;46.55;32.67;;;19.10;99.90;;;;;;5058733;28;20025;-72
2021/06/26 05:06:47;;;;;;;41.20;29.35;;;19.10;99.90;;;;;;5063048;28;20040;-73
2021/06/26 05:09:13;;;;;;;47.22;32.58;;;19.20;99.90;;;;;;5060560;28;20029;-72
2021/06/26 05:11:38;;;;;;;40.97;29.38;;;19.10;99.90;;;;;;5063650;28;20184;-73
2021/06/26 05:14:04;;;;;;;42.92;28.52;;;19.10;99.90;;;;;;5056054;28;20013;-72
2021/06/26 05:16:30;;;;;;;34.80;26.05;;;19.20;99.90;;;;;;5063672;28;20029;-73
2021/06/26 05:18:55;;;;;;;41.83;29.70;;;19.10;99.90;;;;;;5065609;28;20039;-73
2021/06/26 05:21:21;;;;;;;40.67;28.48;;;19.00;99.90;;;;;;5074943;28;20124;-73
2021/06/26 05:23:47;;;;;;;41.92;29.77;;;19.00;99.90;;;;;;5059339;28;20074;-73
2021/06/26 05:26:13;;;;;;;41.30;30.13;;;19.00;99.90;;;;;;5063605;28;20054;-73
2021/06/26 05:28:38;;;;;;;40.25;29.00;;;19.10;99.90;;;;;;5056919;28;20020;-73
2021/06/26 05:31:05;;;;;;;43.22;29.92;;;19.10;99.90;;;;;;5055841;28;20030;-72
2021/06/26 05:33:31;;;;;;;42.22;29.35;;;19.10;99.90;;;;;;5055226;28;20086;-73
2021/06/26 05:35:57;;;;;;;39.38;28.10;;;19.20;99.90;;;;;;5066705;28;20068;-73
2021/06/26 05:38:22;;;;;;;37.42;25.17;;;19.10;99.90;;;;;;5060624;28;21522;-73
2021/06/26 05:40:48;;;;;;;40.67;26.92;;;19.10;99.90;;;;;;5061149;28;20499;-73
2021/06/26 05:43:14;;;;;;;42.95;29.98;;;19.10;99.90;;;;;;5069521;28;20077;-73
2021/06/26 05:45:40;;;;;;;39.30;26.98;;;19.10;99.90;;;;;;5057549;28;20025;-73
2021/06/26 05:48:06;;;;;;;41.50;28.10;;;19.20;99.90;;;;;;5060995;28;20431;-73
2021/06/26 05:50:31;;;;;;;39.10;29.23;;;19.20;99.90;;;;;;5064929;28;20024;-73
2021/06/26 05:52:57;;;;;;;39.65;27.30;;;19.10;99.90;;;;;;5067509;28;20500;-73
2021/06/26 05:55:25;;;;;;;39.97;28.15;;;19.10;99.90;;;;;;5062526;28;20028;-73
2021/06/26 05:57:50;;;;;;;43.78;27.92;;;19.10;99.90;;;;;;5059641;28;20037;-73
2021/06/26 06:00:18;;;;;;;38.42;28.23;;;19.10;99.90;;;;;;5064702;28;20381;-73
2021/06/26 06:02:45;;;;;;;41.15;28.85;;;19.10;99.90;;;;;;5062158;28;20082;-72
2021/06/26 06:05:13;;;;;;;44.67;30.40;;;19.20;99.90;;;;;;5056746;28;20025;-73
2021/06/26 06:07:39;;;;;;;47.03;29.17;;;19.10;99.90;;;;;;5063466;28;20032;-73
2021/06/26 06:10:07;;;;;;;42.58;29.23;;;19.10;99.90;;;;;;5060944;28;20025;-72
2021/06/26 06:12:34;;;;;;;52.05;34.30;;;19.10;99.90;;;;;;5067218;28;20029;-73
2021/06/26 06:15:04;;;;;;;48.20;30.60;;;19.10;99.90;;;;;;5068577;28;20035;-72
2021/06/26 06:17:29;;;;;;;40.38;29.20;;;19.20;99.90;;;;;;5059981;28;20055;-72
2021/06/26 06:19:55;;;;;;;46.05;28.00;;;19.20;99.90;;;;;;5054205;28;20025;-72
2021/06/26 06:22:21;;;;;;;41.15;31.05;;;19.30;99.90;;;;;;5063993;28;20029;-73
2021/06/26 06:24:46;;;;;;;45.63;31.40;;;19.30;99.90;;;;;;5068403;28;20017;-72
2021/06/26 06:27:12;;;;;;;46.92;31.95;;;19.30;99.90;;;;;;5051313;28;20038;-71
2021/06/26 06:29:38;;;;;;;42.30;27.88;;;19.40;99.90;;;;;;5051813;28;20021;-72
2021/06/26 06:32:04;;;;;;;42.72;31.15;;;19.30;99.90;;;;;;5056522;28;20536;-72
2021/06/26 06:34:29;;;;;;;50.78;31.67;;;19.40;99.90;;;;;;5056038;28;20555;-72
2021/06/26 06:36:55;;;;;;;46.08;30.70;;;19.50;99.90;;;;;;5052675;28;20056;-72
2021/06/26 06:39:21;;;;;;;52.55;33.63;;;19.60;99.90;;;;;;5053008;28;20500;-72
2021/06/26 06:41:46;;;;;;;48.25;30.95;;;19.60;99.90;;;;;;5054747;28;20025;-72
2021/06/26 06:44:12;;;;;;;42.72;29.35;;;19.70;99.90;;;;;;5050688;28;20453;-71
2021/06/26 06:46:38;;;;;;;40.92;30.52;;;19.80;99.90;;;;;;5051047;28;20048;-72
2021/06/26 06:49:03;;;;;;;48.78;33.45;;;19.80;99.90;;;;;;5067287;28;20012;-72
2021/06/26 06:51:29;;;;;;;44.65;31.98;;;20.00;99.90;;;;;;5053625;28;20043;-72
2021/06/26 06:53:55;;;;;;;43.63;32.85;;;20.00;99.90;;;;;;5056905;28;20056;-72
2021/06/26 06:56:21;;;;;;;51.40;34.67;;;20.10;99.90;;;;;;5063113;28;20025;-72
2021/06/26 06:58:46;;;;;;;45.92;33.33;;;20.20;99.90;;;;;;5065522;28;20070;-72
2021/06/26 07:01:12;;;;;;;40.50;29.25;;;20.40;99.90;;;;;;5058553;28;20465;-72
2021/06/26 07:03:37;;;;;;;47.00;31.40;;;20.60;99.90;;;;;;5055286;28;20021;-72
2021/06/26 07:06:03;;;;;;;53.10;34.58;;;20.60;99.90;;;;;;5065563;28;20040;-72
2021/06/26 07:08:29;;;;;;;46.85;33.70;;;20.70;99.90;;;;;;5065716;28;20024;-72
2021/06/26 07:10:54;;;;;;;44.95;29.23;;;20.90;99.90;;;;;;5056121;28;20048;-72
2021/06/26 07:13:21;;;;;;;49.40;32.67;;;20.90;99.90;;;;;;5049352;28;20029;-72
2021/06/26 07:15:47;;;;;;;45.97;30.80;;;21.10;99.90;;;;;;5051336;28;20077;-72
2021/06/26 07:18:12;;;;;;;45.47;31.15;;;21.00;99.90;;;;;;5058763;28;20029;-72
2021/06/26 07:20:41;;;;;;;45.65;32.38;;;21.20;99.90;;;;;;5058041;28;20060;-72
2021/06/26 07:23:07;;;;;;;42.45;33.40;;;21.20;99.90;;;;;;5061407;28;20029;-72
2021/06/26 07:25:33;;;;;;;44.88;30.88;;;21.30;99.90;;;;;;5066067;28;20024;-71
2021/06/26 07:27:59;;;;;;;43.20;30.00;;;21.40;99.90;;;;;;5059640;28;20303;-72
2021/06/26 07:30:25;;;;;;;42.60;30.52;;;21.50;99.90;;;;;;5067129;28;20029;-72
2021/06/26 07:32:50;;;;;;;43.00;29.02;;;21.60;99.90;;;;;;5061369;28;20029;-72
2021/06/26 07:35:17;;;;;;;43.85;28.00;;;21.60;99.90;;;;;;5067457;28;20104;-72
2021/06/26 07:37:43;;;;;;;43.13;28.27;;;21.70;99.90;;;;;;5057803;28;20025;-72
2021/06/26 07:40:10;;;;;;;41.78;29.88;;;21.70;99.90;;;;;;5060171;28;20036;-81
2021/06/26 07:42:35;;;;;;;46.28;31.15;;;21.70;99.90;;;;;;5066048;28;20024;-72
2021/06/26 07:45:01;;;;;;;39.75;28.50;;;21.90;99.90;;;;;;5059173;28;20036;-72
2021/06/26 07:47:26;;;;;;;41.53;28.70;;;21.90;99.90;;;;;;5057998;28;20043;-72
2021/06/26 07:49:52;;;;;;;41.08;27.75;;;21.80;99.90;;;;;;5063827;28;20016;-72
2021/06/26 07:52:18;;;;;;;41.42;29.13;;;22.00;99.90;;;;;;5061700;28;20094;-72
2021/06/26 07:54:43;;;;;;;39.50;28.02;;;22.00;99.90;;;;;;5062684;28;20024;-72
2021/06/26 07:57:09;;;;;;;43.65;28.27;;;22.20;99.90;;;;;;5057547;28;20025;-73
2021/06/26 07:59:34;;;;;;;46.63;31.30;;;22.30;99.90;;;;;;5053685;28;20044;-72
2021/06/26 08:02:00;;;;;;;43.03;28.67;;;22.30;99.90;;;;;;5051668;28;20049;-73
2021/06/26 08:04:26;;;;;;;38.30;27.73;;;22.30;99.90;;;;;;5056820;28;20040;-73
2021/06/26 08:06:51;;;;;;;35.90;27.10;;;22.30;99.90;;;;;;5065179;28;20035;-72
2021/06/26 08:09:17;;;;;;;35.33;25.75;;;22.50;99.90;;;;;;5058423;28;20087;-73
2021/06/26 08:11:43;;;;;;;35.90;24.65;;;22.50;99.90;;;;;;5061687;28;20090;-73
2021/06/26 08:14:09;;;;;;;37.50;25.88;;;22.50;99.90;;;;;;5063458;28;20104;-73
2021/06/26 08:16:34;;;;;;;37.40;25.48;;;22.50;99.90;;;;;;5049947;28;20103;-73
2021/06/26 08:19:00;;;;;;;29.20;22.80;;;22.40;99.90;;;;;;5050870;28;20038;-73
2021/06/26 08:21:26;;;;;;;32.78;23.67;;;22.50;99.90;;;;;;5063025;28;20054;-72
2021/06/26 08:23:52;;;;;;;27.10;21.15;;;22.50;99.90;;;;;;5061359;28;20139;-72
2021/06/26 08:26:18;;;;;;;29.88;20.92;;;22.40;99.90;;;;;;5064411;28;20472;-73
2021/06/26 08:28:44;;;;;;;35.17;23.63;;;22.50;99.90;;;;;;5061614;28;20028;-73
2021/06/26 08:31:09;;;;;;;30.20;22.80;;;22.40;99.90;;;;;;5051677;28;20039;-72
2021/06/26 08:33:35;;;;;;;29.55;21.88;;;22.50;99.90;;;;;;5023710;28;20047;-73
2021/06/26 08:36:00;;;;;;;26.42;17.67;;;22.50;99.90;;;;;;5046497;28;20029;-72
2021/06/26 08:38:26;;;;;;;28.73;20.52;;;22.60;99.90;;;;;;5052887;28;20017;-72
2021/06/26 08:40:54;;;;;;;26.98;20.92;;;22.70;99.90;;;;;;5050893;28;20381;-72
2021/06/26 08:43:21;;;;;;;26.30;20.27;;;22.80;99.90;;;;;;5049474;28;20126;-72
2021/06/26 08:45:47;;;;;;;27.20;19.23;;;23.00;99.90;;;;;;5048327;28;20404;-72
2021/06/26 08:48:12;;;;;;;30.20;21.58;;;23.20;99.90;;;;;;5051910;28;20013;-71
2021/06/26 08:50:39;;;;;;;25.15;20.10;;;23.30;99.90;;;;;;5046142;28;20031;-71
2021/06/26 08:53:05;;;;;;;27.25;18.35;;;23.40;99.90;;;;;;5050140;28;20389;-73
2021/06/26 08:55:30;;;;;;;25.48;17.15;;;23.60;99.90;;;;;;5048629;28;20038;-71
2021/06/26 08:57:56;;;;;;;17.67;15.10;;;23.60;99.90;;;;;;5051353;28;20102;-72
2021/06/26 09:00:24;;;;;;;20.35;16.25;;;23.60;99.90;;;;;;5052740;28;20061;-72
2021/06/26 09:02:51;;;;;;;22.55;17.25;;;23.70;99.90;;;;;;5047771;28;20083;-72
2021/06/26 09:05:28;;;;;;;22.55;15.50;;;23.70;99.90;;;;;;5067415;28;20473;-74
2021/06/26 09:07:54;;;;;;;14.90;11.60;;;23.90;99.90;;;;;;5052178;28;20486;-74
2021/06/26 09:10:21;;;;;;;19.35;14.32;;;24.00;99.90;;;;;;5052546;28;20100;-77
2021/06/26 09:12:49;;;;;;;17.85;14.38;;;23.90;99.90;;;;;;5057301;28;20055;-74
2021/06/26 09:15:26;;;;;;;19.83;15.25;;;24.00;99.90;;;;;;5057268;28;20054;-77
2021/06/26 09:17:53;;;;;;;24.02;16.80;;;24.00;99.90;;;;;;5058781;28;20537;-75
2021/06/26 09:20:20;;;;;;;19.23;14.27;;;24.00;99.90;;;;;;5064292;28;20111;-74
2021/06/26 09:22:50;;;;;;;17.15;12.63;;;24.10;99.90;;;;;;5056108;28;20036;-75
2021/06/26 09:25:25;;;;;;;12.85;10.98;;;24.20;99.90;;;;;;5065890;28;20082;-75
2021/06/26 09:27:51;;;;;;;15.32;11.07;;;24.20;99.90;;;;;;5064456;28;20021;-75
2021/06/26 09:30:18;;;;;;;16.25;11.93;;;24.20;99.90;;;;;;5058246;28;20023;-75
2021/06/26 09:32:46;;;;;;;14.40;12.77;;;24.40;99.90;;;;;;5062800;28;20083;-74
2021/06/26 09:35:16;;;;;;;16.73;12.60;;;24.50;99.90;;;;;;5065889;28;20501;-74
2021/06/26 09:37:42;;;;;;;19.77;14.45;;;24.60;99.90;;;;;;5078395;28;20541;-74
2021/06/26 09:40:08;;;;;;;27.08;17.90;;;24.60;99.90;;;;;;5064595;28;20107;-74
2021/06/26 09:42:36;;;;;;;19.98;16.42;;;24.50;99.90;;;;;;5061422;28;20035;-74
2021/06/26 09:45:10;;;;;;;23.25;17.55;;;24.30;99.90;;;;;;5062444;28;20103;-74
2021/06/26 09:47:38;;;;;;;22.95;15.90;;;24.10;99.90;;;;;;5066860;28;20024;-74
2021/06/26 09:50:15;;;;;;;21.63;15.32;;;24.10;99.90;;;;;;5066820;28;20079;-75
2021/06/26 09:52:52;;;;;;;16.80;14.20;;;24.20;99.90;;;;;;5065593;28;20040;-74
2021/06/26 09:55:32;;;;;;;20.13;15.20;;;24.10;99.90;;;;;;5067958;28;20473;-74
2021/06/26 09:58:00;;;;;;;16.95;14.65;;;24.20;99.90;;;;;;5066492;28;20021;-75
2021/06/26 10:00:28;;;;;;;29.00;19.30;;;24.20;99.90;;;;;;5068715;28;20024;-75
2021/06/26 10:02:55;;;;;;;25.10;17.35;;;24.30;99.90;;;;;;5060381;28;20031;-74
2021/06/26 10:05:21;;;;;;;21.00;18.05;;;24.30;99.90;;;;;;5066116;28;20074;-74
2021/06/26 10:07:48;;;;;;;20.02;14.32;;;24.40;99.90;;;;;;5067415;28;20037;-75
2021/06/26 10:10:19;;;;;;;17.27;14.05;;;24.40;99.90;;;;;;5066083;28;20021;-74
2021/06/26 10:12:46;;;;;;;17.92;14.25;;;24.40;99.90;;;;;;5067493;28;20484;-74
2021/06/26 10:15:13;;;;;;;341.63;303.52;;;24.40;99.90;;;;;;5061633;28;20112;-75
2021/06/26 10:17:39;;;;;;;23.92;19.35;;;25.10;99.90;;;;;;5066546;28;20042;-74
2021/06/26 10:20:08;;;;;;;19.48;14.77;;;25.20;99.90;;;;;;5065800;28;20545;-74
2021/06/26 10:22:36;;;;;;;22.10;15.88;;;25.30;99.90;;;;;;5060054;28;20040;-74
2021/06/26 10:25:02;;;;;;;18.15;13.10;;;25.50;99.90;;;;;;5062607;28;20013;-74
2021/06/26 10:27:28;;;;;;;20.70;16.02;;;25.40;99.90;;;;;;5082299;28;20025;-75
2021/06/26 10:29:53;;;;;;;22.42;17.83;;;25.70;99.90;;;;;;5060640;28;20152;-74
2021/06/26 10:32:23;;;;;;;22.35;17.10;;;25.70;99.20;;;;;;5047079;28;20090;-74
2021/06/26 10:34:53;;;;;;;24.67;16.58;;;25.70;99.70;;;;;;5063010;28;20028;-74
2021/06/26 10:37:20;;;;;;;20.92;15.50;;;26.00;99.10;;;;;;5058360;28;20021;-74
2021/06/26 10:39:48;;;;;;;20.73;17.52;;;26.00;99.90;;;;;;5059610;28;20021;-74
2021/06/26 10:42:19;;;;;;;21.35;16.33;;;25.80;98.20;;;;;;5068245;28;20095;-78
2021/06/26 10:44:53;;;;;;;17.08;14.27;;;26.20;99.90;;;;;;5060689;28;20036;-75
2021/06/26 10:47:40;;;;;;;16.85;14.35;;;26.30;99.20;;;;;;5053245;28;20045;-75
2021/06/26 10:50:14;;;;;;;19.42;16.15;;;26.60;99.90;;;;;;5055843;28;20494;-74
2021/06/26 10:52:46;;;;;;;19.63;16.05;;;26.60;98.60;;;;;;5059526;28;20036;-74
2021/06/26 10:55:12;;;;;;;18.17;12.95;;;26.50;98.10;;;;;;5055656;28;20083;-75
2021/06/26 10:57:46;;;;;;;13.93;12.05;;;26.70;99.90;;;;;;5061327;28;20869;-74
2021/06/26 11:00:13;;;;;;;14.93;11.93;;;26.90;99.90;;;;;;5063177;28;20024;-74
2021/06/26 11:02:45;;;;;;;16.88;13.13;;;27.20;99.80;;;;;;5055523;28;20063;-74
2021/06/26 11:05:13;;;;;;;16.38;13.38;;;27.40;99.90;;;;;;5051825;28;20048;-74
2021/06/26 11:07:39;;;;;;;16.20;12.52;;;27.30;99.20;;;;;;5057183;28;20024;-74
2021/06/26 11:10:12;;;;;;;16.20;13.40;;;27.00;97.10;;;;;;5064936;28;20024;-74
2021/06/26 11:12:47;;;;;;;16.88;11.73;;;27.20;97.10;;;;;;5057528;28;20050;-74
2021/06/26 11:15:15;;;;;;;12.35;10.68;;;27.40;99.60;;;;;;5056607;28;20028;-74
2021/06/26 11:17:43;;;;;;;15.57;11.20;;;27.50;98.10;;;;;;5058193;28;20033;-74
2021/06/26 11:20:11;;;;;;;14.02;11.75;;;27.20;97.10;;;;;;5054706;28;20128;-74
2021/06/26 11:22:38;;;;;;;18.60;11.60;;;26.70;96.50;;;;;;5056477;28;20075;-74
2021/06/26 11:25:08;;;;;;;14.80;11.63;;;26.50;98.50;;;;;;5056061;28;20021;-73
2021/06/26 11:27:34;;;;;;;13.88;12.02;;;25.90;96.90;;;;;;5056392;28;20079;-73
2021/06/26 11:30:04;;;;;;;13.55;12.15;;;25.90;97.50;;;;;;5051605;28;20452;-74
2021/06/26 11:32:30;;;;;;;16.15;13.68;;;26.00;97.40;;;;;;5053075;28;20032;-73
2021/06/26 11:35:10;;;;;;;14.32;12.43;;;26.30;97.10;;;;;;5056339;28;20036;-73
2021/06/26 11:37:47;;;;;;;16.52;12.63;;;26.50;97.20;;;;;;5054815;28;20469;-72
2021/06/26 11:40:13;;;;;;;16.55;12.30;;;26.60;95.90;;;;;;5054590;28;20021;-73
2021/06/26 11:42:48;;;;;;;10.70;9.77;;;26.40;96.30;;;;;;5054152;28;20465;-73
2021/06/26 11:45:14;;;;;;;13.80;9.25;;;26.60;98.10;;;;;;5056439;28;20029;-73
2021/06/26 11:47:40;;;;;;;11.60;10.40;;;26.80;97.10;;;;;;5054071;28;21055;-73
2021/06/26 11:50:13;;;;;;;10.30;9.23;;;26.80;97.40;;;;;;5055575;28;20053;-73
2021/06/26 11:52:39;;;;;;;13.15;9.95;;;26.70;95.80;;;;;;5050707;28;20025;-73
2021/06/26 11:55:05;;;;;;;11.52;8.80;;;26.70;95.40;;;;;;5052937;28;20025;-73
2021/06/26 11:57:31;;;;;;;10.35;9.20;;;26.80;94.60;;;;;;5054038;28;20032;-73
2021/06/26 11:59:56;;;;;;;11.88;10.18;;;26.90;94.90;;;;;;5057072;28;20029;-73
2021/06/26 12:02:32;;;;;;;9.18;8.35;;;26.80;96.20;;;;;;5053017;28;20028;-73
2021/06/26 12:04:57;;;;;;;9.35;8.32;;;26.90;96.20;;;;;;5056508;28;20040;-73
2021/06/26 12:07:36;;;;;;;9.90;8.15;;;26.80;96.90;;;;;;5056603;28;20482;-73
2021/06/26 12:10:07;;;;;;;10.13;8.27;;;26.60;96.80;;;;;;5057633;28;20493;-73
2021/06/26 12:12:37;;;;;;;9.65;8.32;;;26.60;96.80;;;;;;5057587;28;20024;-73
2021/06/26 12:15:12;;;;;;;9.95;8.80;;;26.50;98.40;;;;;;5063696;28;20059;-73
2021/06/26 12:17:38;;;;;;;10.70;9.15;;;26.60;97.20;;;;;;5056914;28;20032;-73
2021/06/26 12:20:06;;;;;;;11.43;10.23;;;27.00;96.10;;;;;;5051667;28;20084;-73
2021/06/26 12:22:32;;;;;;;12.77;10.68;;;27.10;94.00;;;;;;5054935;28;20485;-73
2021/06/26 12:25:14;;;;;;;11.75;9.30;;;27.20;94.80;;;;;;5054116;28;20066;-73
2021/06/26 12:27:39;;;;;;;10.60;9.57;;;27.60;95.60;;;;;;5053264;28;20029;-73